createdAt,value
2022-10-22T00:01:16.905Z,2.92
2022-10-22T00:03:43.525Z,2.92
2022-10-22T00:06:10.147Z,2.70
2022-10-22T00:08:38.580Z,4.45
2022-10-22T00:11:10.782Z,2.87
2022-10-22T00:13:37.560Z,2.78
2022-10-22T00:16:04.637Z,2.75
2022-10-22T00:18:31.386Z,2.90
2022-10-22T00:20:58.240Z,2.78
2022-10-22T00:23:24.835Z,2.95
2022-10-22T00:25:53.847Z,3.05
2022-10-22T00:28:20.642Z,2.95
2022-10-22T00:30:47.564Z,3.22
2022-10-22T00:33:14.236Z,3.00
2022-10-22T00:35:40.833Z,3.15
2022-10-22T00:38:07.546Z,3.42
2022-10-22T00:40:34.224Z,3.00
2022-10-22T00:43:02.210Z,3.30
2022-10-22T00:45:29.375Z,3.45
2022-10-22T00:48:00.829Z,3.20
2022-10-22T00:50:32.245Z,2.90
2022-10-22T00:52:59.284Z,3.50
2022-10-22T00:55:27.832Z,3.28
2022-10-22T00:57:56.418Z,2.73
2022-10-22T01:00:25.105Z,2.57
2022-10-22T01:02:53.436Z,2.72
2022-10-22T01:05:20.964Z,2.65
2022-10-22T01:07:49.537Z,3.30
2022-10-22T01:10:26.436Z,2.90
2022-10-22T01:13:01.864Z,2.60
2022-10-22T01:15:37.535Z,2.75
2022-10-22T01:18:08.133Z,2.72
2022-10-22T01:20:58.033Z,2.95
2022-10-22T01:23:42.785Z,3.05
2022-10-22T01:26:20.795Z,2.70
2022-10-22T01:28:58.653Z,2.60
2022-10-22T01:31:29.397Z,2.53
2022-10-22T01:33:58.477Z,2.50
2022-10-22T01:36:25.911Z,2.50
2022-10-22T01:38:54.068Z,3.05
2022-10-22T01:41:20.723Z,2.80
2022-10-22T01:43:47.302Z,2.85
2022-10-22T01:46:18.245Z,3.00
2022-10-22T01:48:55.131Z,2.83
2022-10-22T01:51:36.770Z,2.45
2022-10-22T01:54:09.980Z,2.78
2022-10-22T01:56:53.523Z,2.70
2022-10-22T01:59:32.617Z,2.88
2022-10-22T02:02:10.628Z,2.80
2022-10-22T02:04:44.946Z,2.80
2022-10-22T02:07:15.132Z,2.65
2022-10-22T02:09:43.734Z,2.55
2022-10-22T02:12:12.845Z,2.63
2022-10-22T02:14:43.455Z,2.65
2022-10-22T02:17:16.823Z,2.60
2022-10-22T02:19:50.251Z,2.85
2022-10-22T02:22:17.633Z,2.92
2022-10-22T02:24:44.759Z,2.90
2022-10-22T02:27:25.761Z,2.80
2022-10-22T02:29:58.926Z,2.80
2022-10-22T02:32:32.748Z,3.00
2022-10-22T02:35:00.729Z,3.45
2022-10-22T02:37:28.309Z,3.00
2022-10-22T02:39:55.337Z,2.60
2022-10-22T02:42:23.701Z,2.90
2022-10-22T02:44:50.344Z,2.70
2022-10-22T02:47:17.018Z,2.92
2022-10-22T02:49:45.051Z,2.80
2022-10-22T02:52:11.668Z,2.92
2022-10-22T02:54:38.323Z,2.70
2022-10-22T02:57:05.024Z,3.13
2022-10-22T02:59:31.628Z,2.80
2022-10-22T03:01:58.318Z,2.90
2022-10-22T03:04:24.986Z,2.90
2022-10-22T03:06:53.077Z,3.00
2022-10-22T03:09:22.636Z,2.80
2022-10-22T03:11:51.676Z,2.90
2022-10-22T03:14:18.584Z,3.20
2022-10-22T03:16:45.269Z,2.80
2022-10-22T03:19:11.865Z,2.63
2022-10-22T03:21:42.369Z,3.00
2022-10-22T03:24:13.676Z,3.08
2022-10-22T03:26:41.955Z,2.95
2022-10-22T03:29:10.290Z,3.13
2022-10-22T03:31:37.039Z,3.25
2022-10-22T03:34:03.656Z,2.72
2022-10-22T03:36:31.376Z,2.90
2022-10-22T03:38:59.048Z,2.72
2022-10-22T03:41:27.672Z,3.25
2022-10-22T03:43:55.061Z,3.63
2022-10-22T03:46:21.700Z,3.53
2022-10-22T03:48:48.300Z,3.22
2022-10-22T03:51:15.048Z,3.30
2022-10-22T03:53:41.692Z,3.10
2022-10-22T03:56:09.216Z,3.28
2022-10-22T03:58:37.683Z,3.10
2022-10-22T04:01:05.430Z,2.90
2022-10-22T04:03:32.167Z,3.30
2022-10-22T04:06:01.809Z,3.45
2022-10-22T04:08:28.577Z,3.17
2022-10-22T04:10:55.143Z,3.13
2022-10-22T04:13:21.800Z,2.80
2022-10-22T04:15:49.835Z,3.20
2022-10-22T04:18:16.493Z,3.10
2022-10-22T04:20:43.195Z,3.10
2022-10-22T04:23:09.779Z,3.00
2022-10-22T04:25:36.410Z,3.25
2022-10-22T04:28:03.148Z,2.95
2022-10-22T04:30:29.748Z,2.85
2022-10-22T04:32:57.757Z,3.10
2022-10-22T04:37:51.867Z,3.22
2022-10-22T04:40:18.628Z,3.05
2022-10-22T04:42:45.241Z,3.15
2022-10-22T04:45:11.889Z,3.33
2022-10-22T04:47:39.064Z,2.83
2022-10-22T04:50:08.333Z,3.05
2022-10-22T04:52:35.056Z,3.03
2022-10-22T04:55:01.674Z,3.22
2022-10-22T04:57:29.599Z,2.90
2022-10-22T04:59:56.196Z,2.92
2022-10-22T05:02:22.867Z,3.10
2022-10-22T05:04:49.611Z,3.45
2022-10-22T05:07:17.797Z,2.92
2022-10-22T05:09:44.515Z,3.28
2022-10-22T05:12:11.144Z,3.17
2022-10-22T05:14:41.405Z,3.42
2022-10-22T05:17:10.696Z,3.28
2022-10-22T05:19:37.516Z,3.17
2022-10-22T05:22:05.477Z,3.15
2022-10-22T05:24:34.361Z,3.10
2022-10-22T05:27:01.242Z,3.30
2022-10-22T05:29:28.066Z,3.42
2022-10-22T05:31:55.100Z,3.40
2022-10-22T05:34:21.854Z,3.78
2022-10-22T05:36:48.511Z,3.67
2022-10-22T05:39:15.235Z,3.30
2022-10-22T05:41:43.247Z,3.45
2022-10-22T05:44:12.097Z,3.13
2022-10-22T05:46:38.725Z,3.30
2022-10-22T05:49:06.820Z,3.25
2022-10-22T05:51:35.766Z,3.70
2022-10-22T05:54:08.490Z,3.45
2022-10-22T05:56:35.652Z,3.67
2022-10-22T06:01:35.660Z,4.00
2022-10-22T06:04:07.392Z,4.50
2022-10-22T06:06:36.201Z,3.83
2022-10-22T06:09:06.608Z,4.28
2022-10-22T06:11:35.174Z,5.05
2022-10-22T06:14:03.718Z,5.18
2022-10-22T06:16:31.594Z,5.22
2022-10-22T06:18:59.536Z,5.00
2022-10-22T06:21:26.268Z,5.18
2022-10-22T06:23:56.141Z,4.50
2022-10-22T06:26:27.875Z,4.50
2022-10-22T06:28:55.166Z,4.55
2022-10-22T06:31:23.612Z,4.25
2022-10-22T06:33:50.321Z,5.00
2022-10-22T06:36:19.743Z,4.38
2022-10-22T06:41:15.707Z,4.88
2022-10-22T06:43:46.726Z,5.20
2022-10-22T06:46:17.605Z,5.35
2022-10-22T06:48:52.087Z,5.85
2022-10-22T06:51:19.639Z,5.20
2022-10-22T06:53:46.509Z,5.47
2022-10-22T06:56:16.136Z,5.90
2022-10-22T07:01:15.697Z,5.38
2022-10-22T07:03:42.985Z,5.65
2022-10-22T07:06:12.658Z,4.10
2022-10-22T07:08:42.499Z,3.95
2022-10-22T07:11:11.577Z,3.40
2022-10-22T07:13:38.751Z,3.25
2022-10-22T07:16:07.132Z,3.70
2022-10-22T07:18:35.071Z,3.35
2022-10-22T07:21:05.597Z,3.22
2022-10-22T07:23:33.708Z,3.70
2022-10-22T07:26:00.768Z,4.00
2022-10-22T07:28:27.368Z,3.97
2022-10-22T07:30:54.143Z,3.80
2022-10-22T07:33:21.057Z,3.85
2022-10-22T07:35:47.798Z,4.20
2022-10-22T07:38:14.613Z,4.10
2022-10-22T07:40:42.652Z,4.07
2022-10-22T07:43:09.339Z,3.95
2022-10-22T07:45:36.014Z,4.30
2022-10-22T07:48:02.837Z,4.25
2022-10-22T07:50:29.536Z,4.13
2022-10-22T07:52:58.444Z,3.97
2022-10-22T07:55:25.163Z,4.35
2022-10-22T07:57:53.285Z,4.40
2022-10-22T08:00:23.067Z,4.78
2022-10-22T08:02:52.025Z,5.22
2022-10-22T08:05:18.878Z,4.43
2022-10-22T08:07:45.610Z,4.00
2022-10-22T08:10:13.036Z,4.72
2022-10-22T08:12:40.783Z,4.40
2022-10-22T08:15:10.204Z,3.75
2022-10-22T08:17:37.059Z,3.80
2022-10-22T08:20:04.195Z,3.95
2022-10-22T08:22:30.805Z,3.95
2022-10-22T08:24:57.471Z,4.05
2022-10-22T08:27:24.129Z,4.30
2022-10-22T08:29:50.907Z,4.40
2022-10-22T08:32:19.001Z,4.00
2022-10-22T08:34:45.629Z,5.03
2022-10-22T08:37:12.273Z,5.25
2022-10-22T08:39:39.083Z,5.72
2022-10-22T08:42:17.624Z,9.57
2022-10-22T08:45:00.256Z,9.18
2022-10-22T08:47:47.303Z,9.32
2022-10-22T08:50:19.253Z,9.35
2022-10-22T08:52:53.731Z,7.20
2022-10-22T08:55:24.249Z,6.45
2022-10-22T08:57:59.824Z,6.88
2022-10-22T09:00:37.320Z,5.15
2022-10-22T09:03:27.692Z,4.40
2022-10-22T09:06:03.532Z,4.15
2022-10-22T09:08:30.241Z,4.10
2022-10-22T09:11:04.184Z,3.90
2022-10-22T09:13:30.897Z,3.60
2022-10-22T09:16:00.590Z,4.22
2022-10-22T09:18:39.368Z,4.65
2022-10-22T09:21:17.817Z,5.10
2022-10-22T09:23:54.513Z,4.43
2022-10-22T09:26:21.585Z,4.45
2022-10-22T09:28:51.073Z,4.60
2022-10-22T09:31:21.599Z,4.90
2022-10-22T09:33:54.921Z,4.20
2022-10-22T09:36:23.193Z,4.55
2022-10-22T09:38:53.247Z,4.47
2022-10-22T09:41:23.648Z,4.95
2022-10-22T09:43:50.334Z,4.30
2022-10-22T09:46:28.064Z,4.55
2022-10-22T09:49:06.710Z,5.03
2022-10-22T09:51:56.302Z,4.70
2022-10-22T09:54:38.314Z,4.40
2022-10-22T09:57:09.634Z,4.43
2022-10-22T09:59:41.512Z,4.35
2022-10-22T10:02:37.521Z,4.72
2022-10-22T10:05:30.609Z,4.93
2022-10-22T10:08:02.631Z,4.72
2022-10-22T10:10:41.051Z,4.53
2022-10-22T10:13:27.571Z,5.13
2022-10-22T10:15:59.241Z,4.93
2022-10-22T10:18:48.334Z,5.22
2022-10-22T10:21:30.904Z,4.93
2022-10-22T10:24:05.162Z,4.80
2022-10-22T10:26:37.767Z,5.47
2022-10-22T10:29:24.314Z,6.35
2022-10-22T10:32:06.756Z,7.22
2022-10-22T10:34:43.803Z,7.20
2022-10-22T10:37:21.502Z,8.05
2022-10-22T10:40:26.369Z,6.72
2022-10-22T10:42:58.896Z,7.30
2022-10-22T10:45:33.266Z,7.50
2022-10-22T10:48:41.119Z,8.13
2022-10-22T10:51:18.709Z,6.68
2022-10-22T10:54:03.856Z,7.43
2022-10-22T10:56:39.931Z,8.02
2022-10-22T10:59:16.620Z,7.80
2022-10-22T11:01:58.084Z,7.45
2022-10-22T11:04:45.853Z,7.43
2022-10-22T11:07:30.203Z,7.03
2022-10-22T11:10:08.740Z,6.80
2022-10-22T11:12:43.422Z,7.25
2022-10-22T11:15:22.953Z,6.70
2022-10-22T11:17:54.245Z,7.40
2022-10-22T11:20:25.477Z,6.38
2022-10-22T11:23:18.280Z,6.10
2022-10-22T11:25:47.101Z,6.75
2022-10-22T11:28:20.416Z,7.57
2022-10-22T11:30:54.372Z,6.47
2022-10-22T11:33:26.702Z,6.22
2022-10-22T11:35:53.412Z,6.63
2022-10-22T11:38:24.301Z,6.95
2022-10-22T11:40:57.342Z,6.55
2022-10-22T11:43:29.794Z,6.80
2022-10-22T11:46:08.371Z,6.25
2022-10-22T11:48:37.992Z,6.13
2022-10-22T11:51:37.047Z,6.07
2022-10-22T11:56:52.993Z,5.60
2022-10-22T11:59:39.072Z,6.38
2022-10-22T12:02:24.215Z,6.25
2022-10-22T12:04:50.913Z,6.28
2022-10-22T12:07:35.313Z,7.10
2022-10-22T12:10:05.996Z,6.20
2022-10-22T12:12:38.737Z,6.10
2022-10-22T12:15:23.196Z,6.80
2022-10-22T12:17:50.292Z,6.80
2022-10-22T12:20:17.372Z,6.10
2022-10-22T12:22:46.572Z,6.90
2022-10-22T12:27:44.214Z,6.90
2022-10-22T12:30:18.793Z,6.70
2022-10-22T12:32:45.866Z,6.55
2022-10-22T12:35:19.141Z,6.88
2022-10-22T12:37:49.969Z,6.10
2022-10-22T12:40:19.080Z,6.03
2022-10-22T12:42:51.536Z,5.93
2022-10-22T12:45:18.281Z,7.28
2022-10-22T12:47:50.063Z,6.25
2022-10-22T12:50:19.960Z,6.00
2022-10-22T12:52:48.759Z,5.47
2022-10-22T12:55:17.038Z,5.80
2022-10-22T12:57:46.156Z,5.78
2022-10-22T13:00:25.633Z,5.82
2022-10-22T13:02:52.798Z,6.05
2022-10-22T13:05:25.305Z,6.03
2022-10-22T13:07:57.859Z,5.65
2022-10-22T13:10:26.378Z,6.10
2022-10-22T13:12:56.067Z,6.05
2022-10-22T13:15:35.601Z,5.97
2022-10-22T13:18:16.152Z,5.72
2022-10-22T13:20:54.497Z,6.05
2022-10-22T13:23:24.717Z,6.13
2022-10-22T13:26:03.596Z,6.13
2022-10-22T13:28:32.082Z,5.63
2022-10-22T13:31:00.793Z,5.75
2022-10-22T13:33:30.403Z,6.18
2022-10-22T13:35:57.206Z,6.38
2022-10-22T13:38:26.952Z,6.68
2022-10-22T13:40:54.567Z,6.00
2022-10-22T13:43:22.501Z,7.82
2022-10-22T13:45:52.920Z,7.22
2022-10-22T13:48:27.245Z,6.65
2022-10-22T13:50:56.069Z,6.97
2022-10-22T13:53:25.962Z,6.80
2022-10-22T13:56:16.617Z,7.57
2022-10-22T13:58:52.039Z,6.65
2022-10-22T14:01:23.696Z,6.55
2022-10-22T14:03:53.284Z,6.38
2022-10-22T14:06:22.147Z,6.68
2022-10-22T14:08:56.896Z,6.78
2022-10-22T14:11:30.309Z,7.07
2022-10-22T14:14:01.825Z,6.63
2022-10-22T14:16:29.178Z,6.47
2022-10-22T14:18:58.275Z,6.47
2022-10-22T14:21:25.287Z,7.10
2022-10-22T14:23:58.699Z,5.65
